Time;durP1;ratioP1;P1;durP2;ratioP2;P2;SDS_P1;SDS_P2;PMS_P1;PMS_P2;Temp;Humidity;BMP_temperature;BMP_pressure;BME280_temperature;BME280_humidity;BME280_pressure;Samples;Min_cycle;Max_cycle;Signal;HPM_P1;HPM_P2
2021/07/20 00:01:48;;;;;;;17.57;10.10;;;;;;;;;;5030975;28;20441;-48
2021/07/20 00:04:14;;;;;;;15.20;9.73;;;;;;;;;;5031286;28;20491;-48
2021/07/20 00:06:40;;;;;;;18.83;11.13;;;;;;;;;;5031472;28;20404;-48
2021/07/20 00:09:07;;;;;;;17.73;10.10;;;;;;;;;;5031104;28;20814;-48
2021/07/20 00:11:34;;;;;;;17.73;9.87;;;;;;;;;;5030903;28;20395;-48
2021/07/20 00:14:00;;;;;;;14.87;11.07;;;;;;;;;;5031068;28;20402;-48
2021/07/20 00:16:26;;;;;;;19.73;11.03;;;;;;;;;;5030891;28;20376;-48
2021/07/20 00:18:52;;;;;;;15.30;10.87;;;;;;;;;;5030109;28;20765;-48
2021/07/20 00:21:18;;;;;;;12.73;9.53;;;;;;;;;;5030772;28;20478;-49
2021/07/20 00:23:44;;;;;;;15.83;10.57;;;;;;;;;;5030632;28;20434;-50
2021/07/20 00:26:10;;;;;;;16.30;10.40;;;;;;;;;;5030669;28;20814;-50
2021/07/20 00:28:37;;;;;;;15.73;10.93;;;;;;;;;;5030688;28;20953;-48
2021/07/20 00:31:03;;;;;;;12.50;9.73;;;;;;;;;;5030818;28;20897;-48
2021/07/20 00:33:29;;;;;;;17.13;9.80;;;;;;;;;;5030485;28;20428;-48
2021/07/20 00:35:55;;;;;;;16.50;10.93;;;;;;;;;;5030863;28;20420;-48
2021/07/20 00:38:21;;;;;;;19.40;11.63;;;;;;;;;;5030424;28;20420;-49
2021/07/20 00:40:48;;;;;;;16.80;11.77;;;;;;;;;;5031114;28;20407;-48
2021/07/20 00:43:14;;;;;;;18.67;11.33;;;;;;;;;;5030181;28;20546;-48
2021/07/20 00:45:40;;;;;;;20.97;11.53;;;;;;;;;;5030668;28;20498;-48
2021/07/20 00:48:06;;;;;;;14.83;10.57;;;;;;;;;;5030488;28;20430;-48
2021/07/20 00:50:39;;;;;;;18.33;11.90;;;;;;;;;;5030522;28;20379;-48
2021/07/20 00:53:06;;;;;;;16.20;11.33;;;;;;;;;;5030105;28;20943;-48
2021/07/20 00:55:35;;;;;;;18.70;11.50;;;;;;;;;;5030778;28;20405;-49
2021/07/20 00:58:02;;;;;;;18.10;12.90;;;;;;;;;;5030262;28;20882;-48
2021/07/20 01:00:28;;;;;;;14.57;10.90;;;;;;;;;;5030641;28;20433;-50
2021/07/20 01:02:54;;;;;;;18.40;11.27;;;;;;;;;;5029371;28;20506;-50
2021/07/20 01:05:22;;;;;;;23.27;12.33;;;;;;;;;;5030169;28;20421;-48
2021/07/20 01:07:48;;;;;;;15.03;11.40;;;;;;;;;;5030006;28;20422;-50
2021/07/20 01:10:16;;;;;;;17.40;12.17;;;;;;;;;;5030664;28;20395;-48
2021/07/20 01:12:43;;;;;;;19.53;11.10;;;;;;;;;;5030212;28;20384;-48
2021/07/20 01:15:10;;;;;;;16.10;11.70;;;;;;;;;;5030678;28;20438;-48
2021/07/20 01:17:36;;;;;;;17.83;10.50;;;;;;;;;;5030910;28;20477;-48
2021/07/20 01:20:05;;;;;;;18.40;12.10;;;;;;;;;;5030573;28;20411;-50
2021/07/20 01:22:33;;;;;;;16.47;11.13;;;;;;;;;;5030126;28;20553;-48
2021/07/20 01:25:11;;;;;;;17.63;11.90;;;;;;;;;;5030475;28;20428;-48
2021/07/20 01:27:38;;;;;;;18.27;12.40;;;;;;;;;;5030385;28;20541;-48
2021/07/20 01:30:05;;;;;;;21.13;13.20;;;;;;;;;;5032301;28;20419;-51
2021/07/20 01:32:31;;;;;;;18.17;11.57;;;;;;;;;;5033836;28;20456;-48
2021/07/20 01:34:57;;;;;;;16.67;12.00;;;;;;;;;;5033937;28;20792;-48
2021/07/20 01:37:24;;;;;;;20.47;12.17;;;;;;;;;;5034195;28;20463;-48
2021/07/20 01:39:50;;;;;;;17.40;11.30;;;;;;;;;;5034102;28;20402;-48
2021/07/20 01:42:16;;;;;;;15.53;10.10;;;;;;;;;;5033614;28;20456;-48
2021/07/20 01:44:43;;;;;;;18.00;11.63;;;;;;;;;;5033789;28;20378;-48
2021/07/20 01:47:09;;;;;;;18.20;12.47;;;;;;;;;;5033835;28;20395;-48
2021/07/20 01:49:35;;;;;;;17.63;12.50;;;;;;;;;;5033532;28;21137;-50
2021/07/20 01:52:01;;;;;;;18.07;13.30;;;;;;;;;;5033392;28;20787;-50
2021/07/20 01:54:28;;;;;;;23.77;12.50;;;;;;;;;;5033681;28;20604;-50
2021/07/20 01:56:54;;;;;;;17.77;11.20;;;;;;;;;;5033585;28;20401;-50
2021/07/20 01:59:19;;;;;;;20.23;12.43;;;;;;;;;;5033291;28;20459;-48
2021/07/20 02:09:55;;;;;;;17.03;11.53;;;;;;;;;;5033328;28;20458;-48
2021/07/20 02:12:32;;;;;;;14.90;10.43;;;;;;;;;;5033042;28;20455;-49
2021/07/20 02:14:59;;;;;;;22.00;12.33;;;;;;;;;;5033309;28;20402;-50
2021/07/20 02:17:26;;;;;;;19.70;11.70;;;;;;;;;;5033201;28;20969;-48
2021/07/20 02:19:54;;;;;;;15.10;10.83;;;;;;;;;;5033049;28;20882;-49
2021/07/20 02:22:22;;;;;;;17.33;11.90;;;;;;;;;;5032807;28;20478;-48
2021/07/20 02:24:49;;;;;;;24.83;10.90;;;;;;;;;;5033010;28;20413;-48
2021/07/20 02:27:17;;;;;;;19.30;12.20;;;;;;;;;;5032893;28;20500;-48
2021/07/20 02:29:44;;;;;;;17.97;11.67;;;;;;;;;;5033097;28;20402;-48
2021/07/20 02:32:10;;;;;;;19.37;12.00;;;;;;;;;;5032604;28;20406;-49
2021/07/20 02:34:37;;;;;;;17.23;11.83;;;;;;;;;;5032902;28;20453;-49
2021/07/20 02:37:04;;;;;;;21.07;13.27;;;;;;;;;;5032747;28;20435;-50
2021/07/20 02:39:31;;;;;;;22.13;12.77;;;;;;;;;;5032716;28;20428;-48
2021/07/20 02:41:58;;;;;;;19.93;11.90;;;;;;;;;;5031382;28;20522;-50
2021/07/20 02:44:26;;;;;;;19.93;12.70;;;;;;;;;;5032764;28;20402;-50
2021/07/20 02:46:52;;;;;;;19.57;12.10;;;;;;;;;;5032536;28;20407;-49
2021/07/20 02:49:19;;;;;;;20.70;12.33;;;;;;;;;;5032632;28;20694;-49
2021/07/20 02:51:45;;;;;;;21.67;13.50;;;;;;;;;;5032236;28;20399;-48
2021/07/20 02:54:12;;;;;;;20.53;12.13;;;;;;;;;;5032744;28;21218;-48
2021/07/20 02:56:39;;;;;;;18.90;11.80;;;;;;;;;;5032418;28;20978;-48
2021/07/20 02:59:06;;;;;;;19.90;13.00;;;;;;;;;;5032339;28;20446;-48
2021/07/20 03:01:38;;;;;;;18.07;12.80;;;;;;;;;;5032373;28;20454;-47
2021/07/20 03:04:04;;;;;;;18.13;11.03;;;;;;;;;;5032231;28;20410;-48
2021/07/20 03:06:30;;;;;;;16.97;11.47;;;;;;;;;;5032262;28;20398;-48
2021/07/20 03:09:01;;;;;;;24.00;10.50;;;;;;;;;;5032171;28;20400;-47
2021/07/20 03:11:35;;;;;;;16.80;11.27;;;;;;;;;;5032315;28;20455;-49
2021/07/20 03:14:03;;;;;;;17.23;10.97;;;;;;;;;;5031986;28;20461;-49
2021/07/20 03:16:30;;;;;;;19.27;11.87;;;;;;;;;;5032302;28;20540;-48
2021/07/20 03:18:56;;;;;;;20.57;11.37;;;;;;;;;;5031844;28;20423;-48
2021/07/20 03:21:23;;;;;;;18.63;11.90;;;;;;;;;;5032185;28;20443;-48
2021/07/20 03:23:50;;;;;;;16.40;10.77;;;;;;;;;;5031941;28;20403;-47
2021/07/20 03:26:17;;;;;;;19.23;11.10;;;;;;;;;;5032436;28;20402;-48
2021/07/20 03:28:43;;;;;;;17.47;11.60;;;;;;;;;;5032079;28;20512;-47
2021/07/20 03:31:10;;;;;;;14.40;10.37;;;;;;;;;;5032120;28;20419;-48
2021/07/20 03:33:38;;;;;;;24.10;12.20;;;;;;;;;;5031399;28;20950;-48
2021/07/20 03:36:04;;;;;;;18.63;12.63;;;;;;;;;;5031898;28;20412;-48
2021/07/20 03:38:31;;;;;;;23.37;12.10;;;;;;;;;;5031508;28;20433;-48
2021/07/20 03:40:58;;;;;;;19.27;11.40;;;;;;;;;;5031701;28;20399;-48
2021/07/20 03:43:25;;;;;;;17.77;11.60;;;;;;;;;;5031209;28;20455;-50
2021/07/20 03:45:51;;;;;;;17.97;11.87;;;;;;;;;;5031612;28;20745;-48
2021/07/20 03:48:17;;;;;;;21.80;12.50;;;;;;;;;;5031387;28;20416;-48
2021/07/20 03:50:47;;;;;;;18.67;12.27;;;;;;;;;;5031323;28;20785;-48
2021/07/20 03:53:14;;;;;;;17.10;11.90;;;;;;;;;;5031137;28;20407;-48
2021/07/20 03:55:53;;;;;;;22.80;12.90;;;;;;;;;;5031354;28;20966;-50
2021/07/20 03:58:19;;;;;;;24.73;13.43;;;;;;;;;;5031309;28;20450;-48
2021/07/20 04:00:47;;;;;;;16.17;12.43;;;;;;;;;;5031710;28;20779;-48
2021/07/20 04:03:23;;;;;;;19.67;12.43;;;;;;;;;;5030890;28;20452;-48
2021/07/20 04:05:50;;;;;;;19.63;12.40;;;;;;;;;;5031427;28;20402;-48
2021/07/20 04:08:17;;;;;;;20.13;11.50;;;;;;;;;;5031159;28;20561;-48
2021/07/20 04:10:44;;;;;;;20.87;12.97;;;;;;;;;;5031038;28;20377;-48
2021/07/20 04:13:11;;;;;;;24.57;12.57;;;;;;;;;;5030791;28;20490;-48
2021/07/20 04:15:40;;;;;;;18.80;12.43;;;;;;;;;;5030886;28;20398;-48
2021/07/20 04:18:06;;;;;;;19.70;12.60;;;;;;;;;;5031122;28;20427;-50
2021/07/20 04:20:32;;;;;;;21.83;12.20;;;;;;;;;;5030848;28;20454;-48
2021/07/20 04:22:58;;;;;;;18.20;10.97;;;;;;;;;;5030646;28;20470;-48
2021/07/20 04:25:24;;;;;;;16.00;11.67;;;;;;;;;;5030804;28;20399;-48
2021/07/20 04:27:51;;;;;;;26.10;12.83;;;;;;;;;;5030741;28;20422;-47
2021/07/20 04:30:17;;;;;;;18.47;12.13;;;;;;;;;;5030747;28;20410;-48
2021/07/20 04:32:46;;;;;;;21.03;11.43;;;;;;;;;;5030516;28;20438;-48
2021/07/20 04:35:14;;;;;;;18.47;12.00;;;;;;;;;;5030844;28;20783;-50
2021/07/20 04:37:40;;;;;;;24.67;11.90;;;;;;;;;;5030511;28;20525;-48
2021/07/20 04:40:08;;;;;;;30.50;13.97;;;;;;;;;;5030640;28;20424;-48
2021/07/20 04:42:35;;;;;;;16.80;12.10;;;;;;;;;;5030190;28;20997;-50
2021/07/20 04:45:01;;;;;;;18.37;12.23;;;;;;;;;;5030861;28;20873;-49
2021/07/20 04:47:27;;;;;;;22.13;12.60;;;;;;;;;;5030354;28;20394;-50
2021/07/20 04:49:53;;;;;;;20.87;14.00;;;;;;;;;;5030604;28;20400;-49
2021/07/20 04:52:19;;;;;;;16.13;12.20;;;;;;;;;;5030213;28;20457;-49
2021/07/20 04:54:46;;;;;;;19.20;12.43;;;;;;;;;;5030503;28;20564;-49
2021/07/20 04:57:12;;;;;;;17.63;11.83;;;;;;;;;;5030321;28;20775;-48
2021/07/20 04:59:39;;;;;;;17.97;11.50;;;;;;;;;;5030732;28;20401;-48
2021/07/20 05:02:06;;;;;;;19.93;11.50;;;;;;;;;;5030177;28;20456;-48
2021/07/20 05:04:32;;;;;;;19.07;12.23;;;;;;;;;;5031911;28;20410;-48
2021/07/20 05:06:58;;;;;;;18.33;12.23;;;;;;;;;;5035089;28;20411;-47
2021/07/20 05:09:25;;;;;;;23.03;12.77;;;;;;;;;;5034693;28;20955;-48
2021/07/20 05:11:51;;;;;;;16.03;11.53;;;;;;;;;;5034431;28;20458;-48
2021/07/20 05:14:19;;;;;;;17.00;11.37;;;;;;;;;;5034782;28;20408;-52
2021/07/20 05:16:45;;;;;;;16.80;11.30;;;;;;;;;;5034698;28;20925;-48
2021/07/20 05:19:11;;;;;;;18.53;11.80;;;;;;;;;;5034541;28;20416;-48
2021/07/20 05:21:38;;;;;;;16.70;11.43;;;;;;;;;;5034534;28;20539;-48
2021/07/20 05:24:06;;;;;;;20.13;11.83;;;;;;;;;;5034213;28;20410;-48
2021/07/20 05:26:32;;;;;;;21.10;12.10;;;;;;;;;;5034607;28;20434;-50
2021/07/20 05:28:59;;;;;;;20.10;12.20;;;;;;;;;;5034076;28;20796;-49
2021/07/20 05:31:26;;;;;;;18.40;11.50;;;;;;;;;;5034515;28;20874;-48
2021/07/20 05:33:53;;;;;;;16.20;11.63;;;;;;;;;;5033827;28;20446;-48
2021/07/20 05:36:19;;;;;;;20.50;13.33;;;;;;;;;;5034115;28;20405;-48
2021/07/20 05:38:49;;;;;;;14.13;11.00;;;;;;;;;;5033911;28;20474;-48
2021/07/20 05:41:15;;;;;;;19.30;12.87;;;;;;;;;;5034059;28;20378;-48
2021/07/20 05:43:41;;;;;;;18.00;12.07;;;;;;;;;;5033651;28;20376;-48
2021/07/20 05:46:07;;;;;;;17.90;12.97;;;;;;;;;;5033890;28;20831;-49
2021/07/20 05:48:33;;;;;;;16.93;11.10;;;;;;;;;;5033666;28;20839;-48
2021/07/20 05:51:02;;;;;;;16.13;12.27;;;;;;;;;;5033304;28;20397;-49
2021/07/20 05:53:29;;;;;;;24.50;11.77;;;;;;;;;;5032820;28;20831;-48
2021/07/20 05:55:56;;;;;;;19.33;12.00;;;;;;;;;;5033231;28;20471;-48
2021/07/20 05:58:23;;;;;;;18.00;11.67;;;;;;;;;;5032724;28;20468;-49
2021/07/20 06:00:51;;;;;;;18.67;12.07;;;;;;;;;;5033525;28;20391;-48
2021/07/20 06:03:18;;;;;;;25.63;15.17;;;;;;;;;;5032605;28;20465;-48
2021/07/20 06:05:45;;;;;;;31.23;15.80;;;;;;;;;;5032775;28;20412;-48
2021/07/20 06:08:15;;;;;;;22.67;14.07;;;;;;;;;;5033033;28;20389;-48
2021/07/20 06:10:42;;;;;;;28.40;15.03;;;;;;;;;;5033256;28;20920;-48
2021/07/20 06:13:10;;;;;;;25.60;14.60;;;;;;;;;;5033425;28;20448;-48
2021/07/20 06:15:37;;;;;;;39.60;17.43;;;;;;;;;;5032007;28;20521;-48
2021/07/20 06:18:03;;;;;;;32.70;16.40;;;;;;;;;;5032970;28;20426;-49
2021/07/20 06:20:29;;;;;;;36.33;15.80;;;;;;;;;;5033136;28;20399;-49
2021/07/20 06:22:56;;;;;;;24.47;15.70;;;;;;;;;;5032846;28;20475;-49
2021/07/20 06:25:22;;;;;;;25.60;16.03;;;;;;;;;;5033155;28;20430;-48
2021/07/20 06:27:49;;;;;;;31.93;17.70;;;;;;;;;;5032928;28;20500;-48
2021/07/20 06:30:15;;;;;;;31.13;16.10;;;;;;;;;;5032953;28;20383;-48
2021/07/20 06:32:41;;;;;;;32.40;16.10;;;;;;;;;;5032713;28;20464;-50
2021/07/20 06:35:09;;;;;;;29.37;15.70;;;;;;;;;;5032948;28;20435;-48
2021/07/20 06:37:35;;;;;;;25.97;15.47;;;;;;;;;;5033086;28;20396;-48
2021/07/20 06:40:01;;;;;;;31.00;16.60;;;;;;;;;;5033033;28;20406;-48
2021/07/20 06:42:27;;;;;;;38.50;17.40;;;;;;;;;;5032900;28;20954;-49
2021/07/20 06:44:54;;;;;;;27.73;15.63;;;;;;;;;;5033174;28;20406;-48
2021/07/20 06:47:20;;;;;;;25.33;14.50;;;;;;;;;;5032779;28;20375;-51
2021/07/20 06:49:47;;;;;;;25.90;14.47;;;;;;;;;;5032942;28;20499;-48
2021/07/20 06:52:15;;;;;;;23.10;14.33;;;;;;;;;;5032393;28;20375;-48
2021/07/20 06:54:41;;;;;;;26.80;15.03;;;;;;;;;;5032875;28;20518;-48
2021/07/20 06:57:09;;;;;;;22.13;13.90;;;;;;;;;;5032676;28;20377;-48
2021/07/20 06:59:37;;;;;;;26.13;14.13;;;;;;;;;;5032446;28;20795;-48
2021/07/20 07:02:03;;;;;;;26.70;12.90;;;;;;;;;;5032085;28;20434;-48
2021/07/20 07:04:37;;;;;;;23.00;12.60;;;;;;;;;;5032486;28;20739;-48
2021/07/20 07:07:03;;;;;;;18.03;11.43;;;;;;;;;;5032437;28;20382;-50
2021/07/20 07:09:30;;;;;;;19.90;12.20;;;;;;;;;;5032359;28;20426;-48
2021/07/20 07:11:58;;;;;;;20.93;11.50;;;;;;;;;;5031959;28;20424;-50
2021/07/20 07:14:24;;;;;;;15.60;9.90;;;;;;;;;;5032231;28;21075;-48
2021/07/20 07:16:52;;;;;;;18.47;10.70;;;;;;;;;;5032119;28;20417;-48
2021/07/20 07:19:19;;;;;;;18.53;10.93;;;;;;;;;;5032116;28;20422;-48
2021/07/20 07:21:46;;;;;;;25.77;10.70;;;;;;;;;;5031675;28;20457;-48
2021/07/20 07:24:13;;;;;;;17.37;9.63;;;;;;;;;;5031984;28;20422;-48
2021/07/20 07:26:40;;;;;;;15.40;9.80;;;;;;;;;;5031565;28;20745;-50
2021/07/20 07:29:07;;;;;;;15.43;8.80;;;;;;;;;;5030159;28;20455;-50
2021/07/20 07:31:33;;;;;;;11.50;7.33;;;;;;;;;;5031470;28;20796;-50
2021/07/20 07:33:59;;;;;;;10.17;6.60;;;;;;;;;;5032391;28;20481;-50
2021/07/20 07:36:25;;;;;;;12.17;7.30;;;;;;;;;;5031731;28;20405;-48
2021/07/20 07:38:51;;;;;;;9.43;6.80;;;;;;;;;;5031618;28;20445;-48
2021/07/20 07:41:17;;;;;;;9.03;6.87;;;;;;;;;;5031472;28;20403;-50
2021/07/20 07:43:43;;;;;;;7.73;6.93;;;;;;;;;;5031089;28;20392;-49
2021/07/20 07:46:10;;;;;;;8.00;5.93;;;;;;;;;;5031647;28;20399;-48
2021/07/20 07:48:37;;;;;;;8.20;6.40;;;;;;;;;;5031180;28;20910;-48
2021/07/20 07:51:03;;;;;;;11.43;6.77;;;;;;;;;;5031457;28;20898;-48
2021/07/20 07:53:30;;;;;;;10.10;6.50;;;;;;;;;;5030161;28;20435;-50
2021/07/20 07:55:56;;;;;;;11.63;7.03;;;;;;;;;;5028584;28;20416;-48
2021/07/20 07:58:28;;;;;;;13.30;7.00;;;;;;;;;;5030877;28;20495;-48
2021/07/20 08:00:54;;;;;;;13.10;7.00;;;;;;;;;;5031328;28;20401;-48
2021/07/20 08:03:20;;;;;;;10.40;6.80;;;;;;;;;;5029988;28;20460;-48
2021/07/20 08:05:47;;;;;;;12.27;6.30;;;;;;;;;;5031395;28;20730;-48
2021/07/20 08:08:15;;;;;;;11.90;7.00;;;;;;;;;;5030806;28;20422;-48
2021/07/20 08:10:44;;;;;;;10.50;7.00;;;;;;;;;;5030868;28;20761;-48
2021/07/20 08:13:11;;;;;;;13.33;6.73;;;;;;;;;;5030713;28;20778;-48
2021/07/20 08:15:38;;;;;;;8.63;6.27;;;;;;;;;;5030991;28;20395;-49
2021/07/20 08:18:05;;;;;;;10.83;6.90;;;;;;;;;;5030828;28;20425;-50
2021/07/20 08:20:32;;;;;;;10.20;7.10;;;;;;;;;;5030927;28;20406;-48
2021/07/20 08:22:58;;;;;;;8.83;6.00;;;;;;;;;;5030463;28;20464;-49
2021/07/20 08:25:24;;;;;;;11.00;6.53;;;;;;;;;;5030684;28;20863;-50
2021/07/20 08:27:57;;;;;;;12.17;7.20;;;;;;;;;;5030843;28;20434;-51
2021/07/20 08:30:23;;;;;;;10.67;7.00;;;;;;;;;;5030854;28;20406;-48
2021/07/20 08:32:53;;;;;;;12.73;7.20;;;;;;;;;;5030820;28;20413;-48
2021/07/20 08:35:21;;;;;;;11.20;6.67;;;;;;;;;;5030767;28;20492;-48
2021/07/20 08:37:49;;;;;;;7.77;6.87;;;;;;;;;;5030923;28;20469;-49
2021/07/20 08:40:24;;;;;;;8.20;6.90;;;;;;;;;;5030278;28;20478;-48
2021/07/20 08:43:09;;;;;;;15.30;6.80;;;;;;;;;;5030545;28;20499;-48
2021/07/20 08:45:43;;;;;;;12.67;7.30;;;;;;;;;;5031170;28;20908;-49
2021/07/20 08:48:21;;;;;;;17.53;6.70;;;;;;;;;;5030552;28;20483;-49
2021/07/20 08:50:59;;;;;;;18.93;8.30;;;;;;;;;;5030957;28;20776;-50
2021/07/20 08:53:25;;;;;;;14.33;6.80;;;;;;;;;;5030256;28;20398;-50
2021/07/20 08:55:53;;;;;;;11.97;7.50;;;;;;;;;;5031490;28;20405;-50
2021/07/20 08:58:24;;;;;;;11.03;8.40;;;;;;;;;;5030026;28;20523;-51
2021/07/20 09:00:52;;;;;;;10.97;6.57;;;;;;;;;;5030468;28;20411;-49
2021/07/20 09:03:18;;;;;;;9.10;5.97;;;;;;;;;;5030139;28;20464;-48
2021/07/20 09:05:50;;;;;;;13.80;6.90;;;;;;;;;;5030616;28;20411;-48
2021/07/20 09:08:34;;;;;;;7.37;5.50;;;;;;;;;;5030611;28;20793;-49
2021/07/20 09:11:19;;;;;;;9.90;6.50;;;;;;;;;;5030411;28;20394;-49
2021/07/20 09:14:08;;;;;;;7.30;6.07;;;;;;;;;;5030111;28;20406;-50
2021/07/20 09:16:35;;;;;;;7.47;6.20;;;;;;;;;;5019955;28;20414;-49
2021/07/20 09:19:24;;;;;;;8.40;6.17;;;;;;;;;;5029322;28;20429;-50
2021/07/20 09:21:51;;;;;;;7.70;6.00;;;;;;;;;;5019748;28;21108;-50
2021/07/20 09:24:20;;;;;;;7.77;6.27;;;;;;;;;;5030468;28;20406;-52
2021/07/20 09:26:54;;;;;;;8.27;6.87;;;;;;;;;;5030233;28;20413;-52
2021/07/20 09:29:22;;;;;;;8.17;5.57;;;;;;;;;;5030785;28;20434;-52
2021/07/20 09:31:52;;;;;;;10.87;7.37;;;;;;;;;;5030625;28;20494;-53
2021/07/20 09:34:25;;;;;;;15.03;7.40;;;;;;;;;;5013231;28;20467;-53
2021/07/20 09:37:00;;;;;;;7.23;6.10;;;;;;;;;;5031018;28;20446;-50
2021/07/20 09:39:40;;;;;;;9.57;6.90;;;;;;;;;;5031626;28;20504;-52
2021/07/20 09:42:05;;;;;;;11.03;7.23;;;;;;;;;;5029745;28;20628;-52
2021/07/20 09:44:43;;;;;;;8.13;6.30;;;;;;;;;;5030800;28;20457;-53
2021/07/20 09:47:28;;;;;;;10.40;6.63;;;;;;;;;;5031760;28;20187;-50
2021/07/20 09:49:53;;;;;;;9.93;6.90;;;;;;;;;;5031583;28;21087;-53
2021/07/20 09:52:36;;;;;;;6.30;5.70;;;;;;;;;;5034057;28;20421;-53
2021/07/20 09:55:23;;;;;;;6.97;6.27;;;;;;;;;;5015439;28;20207;-50
2021/07/20 09:57:56;;;;;;;12.07;7.27;;;;;;;;;;4997438;28;20593;-50
2021/07/20 10:00:23;;;;;;;8.83;6.00;;;;;;;;;;5014389;28;20766;-52
2021/07/20 10:03:07;;;;;;;9.43;6.53;;;;;;;;;;5013226;28;20974;-50
2021/07/20 10:05:38;;;;;;;7.63;6.30;;;;;;;;;;5014259;28;20433;-53
2021/07/20 10:08:25;;;;;;;7.67;6.80;;;;;;;;;;5013194;28;20789;-52
2021/07/20 10:10:59;;;;;;;10.00;7.43;;;;;;;;;;5013453;28;20399;-52
2021/07/20 10:13:31;;;;;;;8.90;8.00;;;;;;;;;;5013280;28;20403;-53
2021/07/20 10:16:27;;;;;;;8.57;7.20;;;;;;;;;;5013639;28;20482;-53
2021/07/20 10:19:06;;;;;;;9.07;7.60;;;;;;;;;;5004737;28;20478;-52
2021/07/20 10:21:34;;;;;;;7.57;6.77;;;;;;;;;;5027793;28;20479;-50
2021/07/20 10:24:13;;;;;;;6.97;6.20;;;;;;;;;;5014794;28;20422;-52
2021/07/20 10:26:57;;;;;;;9.43;7.90;;;;;;;;;;5033148;28;20398;-49
2021/07/20 10:29:40;;;;;;;10.63;7.93;;;;;;;;;;5032908;28;20483;-49
2021/07/20 10:32:08;;;;;;;10.53;7.93;;;;;;;;;;5032785;28;20429;-51
2021/07/20 10:34:38;;;;;;;10.03;8.13;;;;;;;;;;5032836;28;21493;-52
2021/07/20 10:37:10;;;;;;;9.40;7.73;;;;;;;;;;5032894;28;20452;-49
2021/07/20 10:39:43;;;;;;;10.80;8.70;;;;;;;;;;5032794;28;20904;-49
2021/07/20 10:42:12;;;;;;;9.30;7.43;;;;;;;;;;5032325;28;20450;-50
2021/07/20 10:44:54;;;;;;;8.80;7.90;;;;;;;;;;5033113;28;20926;-50
2021/07/20 10:47:21;;;;;;;10.67;7.60;;;;;;;;;;5026973;28;20413;-50
2021/07/20 10:50:00;;;;;;;9.00;7.50;;;;;;;;;;5019665;28;20403;-53
2021/07/20 10:52:26;;;;;;;8.87;7.03;;;;;;;;;;5012763;28;20411;-51
2021/07/20 10:54:55;;;;;;;11.23;7.93;;;;;;;;;;5012635;28;20449;-50
2021/07/20 10:57:24;;;;;;;8.40;7.50;;;;;;;;;;5012202;28;20399;-52
2021/07/20 10:59:53;;;;;;;9.43;8.53;;;;;;;;;;5010887;28;20924;-50
2021/07/20 11:02:19;;;;;;;8.70;7.73;;;;;;;;;;5009860;28;20446;-51
2021/07/20 11:04:58;;;;;;;10.17;7.33;;;;;;;;;;5010790;28;20691;-50
2021/07/20 11:07:31;;;;;;;13.10;7.40;;;;;;;;;;5010499;28;20179;-50
2021/07/20 11:10:05;;;;;;;9.47;8.30;;;;;;;;;;5010548;28;20438;-50
2021/07/20 11:12:32;;;;;;;7.57;6.87;;;;;;;;;;5010239;28;20553;-50
2021/07/20 11:14:59;;;;;;;8.90;7.60;;;;;;;;;;5011204;28;20399;-50
2021/07/20 11:17:26;;;;;;;8.40;7.57;;;;;;;;;;5012538;28;20415;-50
2021/07/20 11:19:53;;;;;;;9.60;8.27;;;;;;;;;;5012242;28;20403;-49
2021/07/20 11:22:19;;;;;;;9.00;8.10;;;;;;;;;;5011789;28;20461;-50
2021/07/20 11:24:46;;;;;;;8.80;7.90;;;;;;;;;;5012515;28;20403;-50
2021/07/20 11:27:13;;;;;;;9.70;8.80;;;;;;;;;;5012311;28;20399;-50
2021/07/20 11:29:40;;;;;;;9.00;7.47;;;;;;;;;;5012063;28;20494;-50
2021/07/20 11:32:07;;;;;;;8.43;6.77;;;;;;;;;;5012013;28;20407;-49
2021/07/20 11:34:38;;;;;;;8.03;7.23;;;;;;;;;;5011944;28;20836;-50
2021/07/20 11:37:07;;;;;;;9.27;7.67;;;;;;;;;;5012124;28;20897;-50
2021/07/20 11:39:36;;;;;;;8.93;7.40;;;;;;;;;;5011853;28;20443;-50
2021/07/20 11:42:08;;;;;;;9.73;8.07;;;;;;;;;;5011797;28;20458;-50
2021/07/20 11:44:38;;;;;;;8.67;7.37;;;;;;;;;;5013710;28;20507;-49
2021/07/20 11:47:07;;;;;;;8.77;7.30;;;;;;;;;;5031357;28;20414;-50
2021/07/20 11:49:42;;;;;;;9.50;8.00;;;;;;;;;;5031597;28;20990;-50
2021/07/20 11:52:22;;;;;;;8.97;7.10;;;;;;;;;;5031307;28;20505;-50
2021/07/20 11:55:10;;;;;;;8.23;7.40;;;;;;;;;;5029717;28;20924;-50
2021/07/20 11:58:05;;;;;;;11.60;8.13;;;;;;;;;;5029193;28;21007;-51
2021/07/20 12:00:50;;;;;;;11.23;6.93;;;;;;;;;;4941593;28;20434;-50
2021/07/20 12:03:18;;;;;;;11.30;9.97;;;;;;;;;;5029262;28;20825;-50
2021/07/20 12:05:56;;;;;;;8.97;7.10;;;;;;;;;;5029347;28;20398;-50
2021/07/20 12:08:40;;;;;;;8.07;6.53;;;;;;;;;;5029190;28;20770;-50
2021/07/20 12:11:19;;;;;;;7.20;6.50;;;;;;;;;;5030473;28;20410;-50
2021/07/20 12:13:45;;;;;;;8.83;6.67;;;;;;;;;;5030916;28;20773;-49
2021/07/20 12:16:12;;;;;;;10.60;7.50;;;;;;;;;;5030984;28;20845;-49
2021/07/20 12:18:48;;;;;;;10.80;6.87;;;;;;;;;;5030930;28;20426;-50
2021/07/20 12:21:15;;;;;;;10.20;6.73;;;;;;;;;;5030801;28;20393;-50
2021/07/20 12:23:41;;;;;;;8.07;6.83;;;;;;;;;;5030781;28;20458;-50
2021/07/20 12:26:08;;;;;;;7.10;6.40;;;;;;;;;;5030873;28;20398;-50
2021/07/20 12:28:39;;;;;;;10.30;6.87;;;;;;;;;;5030871;28;20432;-50
2021/07/20 12:31:06;;;;;;;7.57;6.77;;;;;;;;;;5030676;28;20911;-52
2021/07/20 12:33:32;;;;;;;8.63;6.53;;;;;;;;;;5030547;28;20807;-51
2021/07/20 12:35:58;;;;;;;8.43;6.80;;;;;;;;;;5030900;28;20953;-51
2021/07/20 12:38:24;;;;;;;7.83;7.03;;;;;;;;;;5030739;28;20422;-50
2021/07/20 12:40:50;;;;;;;7.37;6.40;;;;;;;;;;5030617;28;20907;-49
2021/07/20 12:43:17;;;;;;;8.00;6.50;;;;;;;;;;5030559;28;20457;-49
2021/07/20 12:45:47;;;;;;;8.10;5.97;;;;;;;;;;5030663;28;20485;-50
2021/07/20 12:48:26;;;;;;;8.50;6.00;;;;;;;;;;5030687;28;20525;-50
2021/07/20 12:50:57;;;;;;;9.23;6.90;;;;;;;;;;5030639;28;20413;-52
2021/07/20 12:53:25;;;;;;;7.77;6.57;;;;;;;;;;5030408;28;20398;-50
2021/07/20 12:55:51;;;;;;;8.70;6.20;;;;;;;;;;5030568;28;20485;-50
2021/07/20 12:58:20;;;;;;;7.77;6.13;;;;;;;;;;5030247;28;20442;-50
2021/07/20 13:00:47;;;;;;;7.80;6.27;;;;;;;;;;5030628;28;20410;-50
2021/07/20 13:03:13;;;;;;;6.70;5.90;;;;;;;;;;5030431;28;20464;-50
2021/07/20 13:05:43;;;;;;;7.40;6.53;;;;;;;;;;5030568;28;20432;-50
2021/07/20 13:08:12;;;;;;;9.43;7.07;;;;;;;;;;5030432;28;20953;-50
2021/07/20 13:10:38;;;;;;;6.67;6.03;;;;;;;;;;5030718;28;20410;-50
2021/07/20 13:13:06;;;;;;;6.10;5.30;;;;;;;;;;5030425;28;20413;-54
2021/07/20 13:15:32;;;;;;;9.53;6.50;;;;;;;;;;5030893;28;20398;-50
2021/07/20 13:18:00;;;;;;;9.80;7.23;;;;;;;;;;5030609;28;20432;-53
2021/07/20 13:20:28;;;;;;;10.83;6.33;;;;;;;;;;5030579;28;20402;-49
2021/07/20 13:22:55;;;;;;;6.80;6.13;;;;;;;;;;5028944;28;20461;-50
2021/07/20 13:25:21;;;;;;;7.30;6.53;;;;;;;;;;5031150;28;20409;-52
2021/07/20 13:27:51;;;;;;;7.67;6.17;;;;;;;;;;5034337;28;20472;-50
2021/07/20 13:30:19;;;;;;;11.20;6.60;;;;;;;;;;5034284;28;20875;-50
2021/07/20 13:32:46;;;;;;;9.13;6.30;;;;;;;;;;5033937;28;20769;-51
2021/07/20 13:35:12;;;;;;;7.50;5.83;;;;;;;;;;5034024;28;20410;-50
2021/07/20 13:37:39;;;;;;;7.43;6.67;;;;;;;;;;5033960;28;20421;-50
2021/07/20 13:40:05;;;;;;;7.23;6.50;;;;;;;;;;5033896;28;20421;-49
2021/07/20 13:42:32;;;;;;;6.70;6.10;;;;;;;;;;5033398;28;20494;-50
2021/07/20 13:45:00;;;;;;;7.40;6.40;;;;;;;;;;5033794;28;20402;-50
2021/07/20 13:47:28;;;;;;;5.77;5.20;;;;;;;;;;5033881;28;20442;-50
2021/07/20 13:49:57;;;;;;;6.83;5.90;;;;;;;;;;5033690;28;20398;-50
2021/07/20 13:52:25;;;;;;;8.33;6.00;;;;;;;;;;5033524;28;20398;-50
2021/07/20 13:54:53;;;;;;;6.37;5.63;;;;;;;;;;5033656;28;20409;-50
2021/07/20 13:57:19;;;;;;;10.20;7.00;;;;;;;;;;5033593;28;20417;-49
2021/07/20 13:59:47;;;;;;;6.27;5.30;;;;;;;;;;5033429;28;20521;-52
2021/07/20 14:02:15;;;;;;;5.63;5.03;;;;;;;;;;5033269;28;20998;-50
2021/07/20 14:04:41;;;;;;;8.60;5.77;;;;;;;;;;5033433;28;20406;-50
2021/07/20 14:07:08;;;;;;;5.80;5.30;;;;;;;;;;5033329;28;20481;-50
2021/07/20 14:09:34;;;;;;;8.20;5.30;;;;;;;;;;5033410;28;20430;-50
2021/07/20 14:12:02;;;;;;;9.93;5.73;;;;;;;;;;5033029;28;20402;-50
2021/07/20 14:14:28;;;;;;;6.27;5.60;;;;;;;;;;5033394;28;20528;-52
2021/07/20 14:16:55;;;;;;;6.10;5.50;;;;;;;;;;5033199;28;20402;-50
2021/07/20 14:19:21;;;;;;;6.83;6.13;;;;;;;;;;5033099;28;20919;-50
2021/07/20 14:21:49;;;;;;;6.90;5.30;;;;;;;;;;5032824;28;20886;-50
2021/07/20 14:24:15;;;;;;;6.90;5.60;;;;;;;;;;5032315;28;20417;-51
2021/07/20 14:26:49;;;;;;;5.10;4.60;;;;;;;;;;5032698;28;21036;-50
2021/07/20 14:29:19;;;;;;;7.77;5.63;;;;;;;;;;5033469;28;20560;-50
2021/07/20 14:31:46;;;;;;;5.33;4.73;;;;;;;;;;4998239;28;20947;-52
2021/07/20 14:34:14;;;;;;;6.13;4.97;;;;;;;;;;5034631;28;20414;-50
2021/07/20 14:36:42;;;;;;;6.80;5.40;;;;;;;;;;5030863;28;20923;-52
2021/07/20 14:39:26;;;;;;;5.60;5.10;;;;;;;;;;5032575;28;20417;-52
2021/07/20 14:42:11;;;;;;;10.10;5.60;;;;;;;;;;5032259;28;20401;-52
2021/07/20 14:44:43;;;;;;;6.23;5.40;;;;;;;;;;5032400;28;20772;-52
2021/07/20 14:47:09;;;;;;;5.80;5.30;;;;;;;;;;5033053;28;20403;-52